Orbital elements of COSMOS 2251 DEB
| Launched | 15 June 1993 |
| Flight ended | – |
| Launch site | Plesetsk Missile and Space Complex, Russia |
| Owner | Commonwealth of Independent States (former USSR) |
| NORAD ID | 34909 |
| Date fetched |
Epoch osculation |
Inc. [°] |
Ecc. | RA asc node [hr] |
Arg Peri. [°] |
Mean anom [°] |
Mean motion [rev/day] |
Abs. mag |
| Date fetched |
Epoch osculation |
Inc. [°] |
Ecc. | RA asc node [hr] |
Arg Peri. [°] |
Mean anom [°] |
Mean motion [rev/day] |
Abs. mag |
| 2026 May 04 17:57 | 2026 Apr 29 13:02:57 | 74.0127 | 0.00845 | 11.0279 | 265.4162 | 93.7358 | 14.78820 | – |
| 2026 May 03 17:57 | 2026 Apr 29 13:02:57 | 74.0127 | 0.00845 | 11.0279 | 265.4162 | 93.7358 | 14.78820 | – |
| 2026 May 02 17:57 | 2026 Apr 29 13:02:57 | 74.0127 | 0.00845 | 11.0279 | 265.4162 | 93.7358 | 14.78820 | – |
| 2026 May 01 17:56 | 2026 Apr 29 13:02:57 | 74.0127 | 0.00845 | 11.0279 | 265.4162 | 93.7358 | 14.78820 | – |
| 2026 Apr 30 17:56 | 2026 Apr 29 13:02:57 | 74.0127 | 0.00845 | 11.0279 | 265.4162 | 93.7358 | 14.78820 | – |
| 2026 Apr 29 17:57 | 2026 Apr 20 13:06:29 | 74.0128 | 0.00844 | 12.2089 | 285.1044 | 93.7358 | 14.78820 | – |
| 2026 Apr 28 17:56 | 2026 Apr 20 13:06:29 | 74.0128 | 0.00844 | 12.2089 | 285.1044 | 93.7358 | 14.78820 | – |
| 2026 Apr 27 17:58 | 2026 Apr 20 13:06:29 | 74.0128 | 0.00844 | 12.2089 | 285.1044 | 93.7358 | 14.78820 | – |
| 2026 Apr 26 17:58 | 2026 Apr 20 13:06:29 | 74.0128 | 0.00844 | 12.2089 | 285.1044 | 93.7358 | 14.78820 | – |
| 2026 Apr 25 17:58 | 2026 Apr 20 13:06:29 | 74.0128 | 0.00844 | 12.2089 | 285.1044 | 93.7358 | 14.78820 | – |
| 2026 Apr 24 17:59 | 2026 Apr 20 13:06:29 | 74.0128 | 0.00844 | 12.2089 | 285.1044 | 93.7358 | 14.78820 | – |
| 2026 Apr 23 17:57 | 2026 Apr 19 11:07:48 | 74.0129 | 0.00844 | 12.3509 | 287.4733 | 93.7358 | 14.78820 | – |
| 2026 Apr 22 17:57 | 2026 Apr 19 11:07:48 | 74.0129 | 0.00844 | 12.3509 | 287.4733 | 93.7358 | 14.78820 | – |
| 2026 Apr 21 17:57 | 2026 Apr 19 11:07:48 | 74.0129 | 0.00844 | 12.3509 | 287.4733 | 93.7358 | 14.78820 | – |
| 2026 Apr 20 17:57 | 2026 Apr 19 11:07:48 | 74.0129 | 0.00844 | 12.3509 | 287.4733 | 93.7358 | 14.78820 | – |
| 2026 Apr 19 17:58 | 2026 Apr 19 11:07:48 | 74.0129 | 0.00844 | 12.3509 | 287.4733 | 93.7358 | 14.78820 | – |
| 2026 Apr 18 17:56 | 2026 Apr 12 00:31:42 | 74.0139 | 0.00842 | 13.3276 | 303.8211 | 93.7358 | 14.78820 | – |
| 2026 Apr 16 17:57 | 2026 Apr 12 00:31:42 | 74.0139 | 0.00842 | 13.3276 | 303.8211 | 93.7358 | 14.78820 | – |
| 2026 Apr 14 17:57 | 2026 Apr 12 00:31:42 | 74.0139 | 0.00842 | 13.3276 | 303.8211 | 93.7358 | 14.78820 | – |
| 2026 Apr 13 17:57 | 2026 Apr 12 00:31:42 | 74.0139 | 0.00842 | 13.3276 | 303.8211 | 93.7358 | 14.78820 | – |
| 2026 Apr 12 17:57 | 2026 Apr 08 13:43:17 | 74.0139 | 0.00840 | 13.7805 | 311.4171 | 93.7358 | 14.78820 | – |
| 2026 Apr 11 17:57 | 2026 Apr 08 13:43:17 | 74.0139 | 0.00840 | 13.7805 | 311.4171 | 93.7358 | 14.78820 | – |
| 2026 Apr 10 17:58 | 2026 Apr 08 13:43:17 | 74.0139 | 0.00840 | 13.7805 | 311.4171 | 93.7358 | 14.78820 | – |
| 2026 Apr 09 18:01 | 2026 Apr 08 13:43:17 | 74.0139 | 0.00840 | 13.7805 | 311.4171 | 93.7358 | 14.78820 | – |
| 2026 Apr 08 17:57 | 2026 Apr 08 13:43:17 | 74.0139 | 0.00840 | 13.7805 | 311.4171 | 93.7358 | 14.78820 | – |
| 2026 Apr 07 17:57 | 2026 Apr 02 01:50:47 | 74.0136 | 0.00838 | 14.6328 | 325.7195 | 93.7358 | 14.78820 | – |